sensor_id;sensor_type;location;lat;lon;timestamp;P1;durP1;ratioP1;P2;durP2;ratioP2
10041;SDS011;5061;49.068;12.058;2023-05-01T00:01:56;2.40;;;2.10;;
10041;SDS011;5061;49.068;12.058;2023-05-01T00:05:16;3.80;;;2.47;;
10041;SDS011;5061;49.068;12.058;2023-05-01T00:08:37;1.97;;;1.87;;
10041;SDS011;5061;49.068;12.058;2023-05-01T00:11:57;2.37;;;2.07;;
10041;SDS011;5061;49.068;12.058;2023-05-01T00:15:18;3.70;;;3.00;;
10041;SDS011;5061;49.068;12.058;2023-05-01T00:18:39;3.30;;;2.50;;
10041;SDS011;5061;49.068;12.058;2023-05-01T00:21:59;2.50;;;2.30;;
10041;SDS011;5061;49.068;12.058;2023-05-01T00:25:20;3.10;;;2.60;;
10041;SDS011;5061;49.068;12.058;2023-05-01T00:28:40;2.93;;;2.20;;
10041;SDS011;5061;49.068;12.058;2023-05-01T00:32:01;2.53;;;2.20;;
10041;SDS011;5061;49.068;12.058;2023-05-01T00:35:22;2.40;;;2.10;;
10041;SDS011;5061;49.068;12.058;2023-05-01T00:38:42;2.53;;;2.30;;
10041;SDS011;5061;49.068;12.058;2023-05-01T00:42:03;2.50;;;2.10;;
10041;SDS011;5061;49.068;12.058;2023-05-01T00:45:23;3.57;;;2.87;;
10041;SDS011;5061;49.068;12.058;2023-05-01T00:48:44;3.13;;;2.30;;
10041;SDS011;5061;49.068;12.058;2023-05-01T00:52:05;3.30;;;2.60;;
10041;SDS011;5061;49.068;12.058;2023-05-01T00:55:25;3.30;;;2.60;;
10041;SDS011;5061;49.068;12.058;2023-05-01T00:58:48;2.60;;;2.40;;
10041;SDS011;5061;49.068;12.058;2023-05-01T01:02:12;3.43;;;2.93;;
10041;SDS011;5061;49.068;12.058;2023-05-01T01:05:34;3.07;;;2.73;;
10041;SDS011;5061;49.068;12.058;2023-05-01T01:20:03;3.47;;;3.10;;
10041;SDS011;5061;49.068;12.058;2023-05-01T01:31:20;5.53;;;3.47;;
10041;SDS011;5061;49.068;12.058;2023-05-01T01:35:17;3.43;;;3.00;;
10041;SDS011;5061;49.068;12.058;2023-05-01T01:38:41;4.63;;;3.50;;
10041;SDS011;5061;49.068;12.058;2023-05-01T01:42:06;5.53;;;3.50;;
10041;SDS011;5061;49.068;12.058;2023-05-01T01:45:39;5.53;;;3.40;;
10041;SDS011;5061;49.068;12.058;2023-05-01T01:49:03;4.37;;;2.97;;
10041;SDS011;5061;49.068;12.058;2023-05-01T01:52:28;4.70;;;3.17;;
10041;SDS011;5061;49.068;12.058;2023-05-01T01:55:50;6.37;;;4.10;;
10041;SDS011;5061;49.068;12.058;2023-05-01T01:59:13;5.37;;;3.97;;
10041;SDS011;5061;49.068;12.058;2023-05-01T02:02:38;5.17;;;4.13;;
10041;SDS011;5061;49.068;12.058;2023-05-01T02:06:01;6.30;;;4.40;;
10041;SDS011;5061;49.068;12.058;2023-05-01T02:09:23;5.87;;;4.03;;
10041;SDS011;5061;49.068;12.058;2023-05-01T02:12:47;6.00;;;4.50;;
10041;SDS011;5061;49.068;12.058;2023-05-01T02:16:10;5.33;;;4.47;;
10041;SDS011;5061;49.068;12.058;2023-05-01T02:19:32;6.30;;;4.63;;
10041;SDS011;5061;49.068;12.058;2023-05-01T02:22:53;6.17;;;4.63;;
10041;SDS011;5061;49.068;12.058;2023-05-01T02:26:15;8.13;;;4.67;;
10041;SDS011;5061;49.068;12.058;2023-05-01T02:29:38;5.20;;;4.03;;
10041;SDS011;5061;49.068;12.058;2023-05-01T02:32:58;5.90;;;4.37;;
10041;SDS011;5061;49.068;12.058;2023-05-01T02:36:19;5.47;;;4.37;;
10041;SDS011;5061;49.068;12.058;2023-05-01T02:39:40;5.60;;;4.00;;
10041;SDS011;5061;49.068;12.058;2023-05-01T02:43:00;5.03;;;3.80;;
10041;SDS011;5061;49.068;12.058;2023-05-01T02:46:25;8.47;;;5.70;;
10041;SDS011;5061;49.068;12.058;2023-05-01T02:49:47;8.40;;;5.03;;
10041;SDS011;5061;49.068;12.058;2023-05-01T02:53:10;6.60;;;4.53;;
10041;SDS011;5061;49.068;12.058;2023-05-01T02:56:32;8.10;;;4.80;;
10041;SDS011;5061;49.068;12.058;2023-05-01T02:59:52;7.83;;;5.27;;
10041;SDS011;5061;49.068;12.058;2023-05-01T03:03:13;9.70;;;6.37;;
10041;SDS011;5061;49.068;12.058;2023-05-01T03:06:35;7.77;;;5.73;;
10041;SDS011;5061;49.068;12.058;2023-05-01T03:09:55;6.73;;;5.20;;
10041;SDS011;5061;49.068;12.058;2023-05-01T03:13:16;8.53;;;5.37;;
10041;SDS011;5061;49.068;12.058;2023-05-01T03:16:36;7.87;;;5.60;;
10041;SDS011;5061;49.068;12.058;2023-05-01T03:19:57;7.63;;;5.53;;
10041;SDS011;5061;49.068;12.058;2023-05-01T03:23:18;7.77;;;5.50;;
10041;SDS011;5061;49.068;12.058;2023-05-01T03:26:38;6.63;;;5.13;;
10041;SDS011;5061;49.068;12.058;2023-05-01T03:29:59;8.83;;;5.43;;
10041;SDS011;5061;49.068;12.058;2023-05-01T03:33:19;7.67;;;5.20;;
10041;SDS011;5061;49.068;12.058;2023-05-01T03:36:40;11.90;;;6.50;;
10041;SDS011;5061;49.068;12.058;2023-05-01T03:40:01;7.27;;;5.10;;
10041;SDS011;5061;49.068;12.058;2023-05-01T03:43:22;11.13;;;5.77;;
10041;SDS011;5061;49.068;12.058;2023-05-01T03:46:43;8.70;;;6.00;;
10041;SDS011;5061;49.068;12.058;2023-05-01T03:50:04;9.73;;;5.67;;
10041;SDS011;5061;49.068;12.058;2023-05-01T03:53:25;11.47;;;7.00;;
10041;SDS011;5061;49.068;12.058;2023-05-01T03:56:46;10.47;;;6.63;;
10041;SDS011;5061;49.068;12.058;2023-05-01T04:00:07;8.63;;;6.60;;
10041;SDS011;5061;49.068;12.058;2023-05-01T04:03:28;10.67;;;7.10;;
10041;SDS011;5061;49.068;12.058;2023-05-01T04:06:49;9.40;;;6.80;;
10041;SDS011;5061;49.068;12.058;2023-05-01T04:10:09;12.07;;;6.93;;
10041;SDS011;5061;49.068;12.058;2023-05-01T04:13:30;8.87;;;6.60;;
10041;SDS011;5061;49.068;12.058;2023-05-01T04:16:51;9.93;;;7.13;;
10041;SDS011;5061;49.068;12.058;2023-05-01T04:20:11;12.73;;;7.40;;
10041;SDS011;5061;49.068;12.058;2023-05-01T04:23:32;11.40;;;7.77;;
10041;SDS011;5061;49.068;12.058;2023-05-01T04:26:53;9.20;;;6.40;;
10041;SDS011;5061;49.068;12.058;2023-05-01T04:30:13;10.67;;;7.33;;
10041;SDS011;5061;49.068;12.058;2023-05-01T04:33:34;9.90;;;7.00;;
10041;SDS011;5061;49.068;12.058;2023-05-01T04:36:55;10.93;;;7.70;;
10041;SDS011;5061;49.068;12.058;2023-05-01T04:40:16;13.73;;;7.80;;
10041;SDS011;5061;49.068;12.058;2023-05-01T04:43:36;14.00;;;7.83;;
10041;SDS011;5061;49.068;12.058;2023-05-01T04:46:57;13.00;;;7.67;;
10041;SDS011;5061;49.068;12.058;2023-05-01T04:50:18;13.03;;;7.87;;
10041;SDS011;5061;49.068;12.058;2023-05-01T04:53:38;11.37;;;7.77;;
10041;SDS011;5061;49.068;12.058;2023-05-01T04:56:59;16.67;;;8.47;;
10041;SDS011;5061;49.068;12.058;2023-05-01T05:00:20;10.30;;;7.47;;
10041;SDS011;5061;49.068;12.058;2023-05-01T05:03:40;14.70;;;7.80;;
10041;SDS011;5061;49.068;12.058;2023-05-01T05:07:01;10.80;;;7.77;;
10041;SDS011;5061;49.068;12.058;2023-05-01T05:10:22;12.90;;;7.70;;
10041;SDS011;5061;49.068;12.058;2023-05-01T05:13:43;11.93;;;7.83;;
10041;SDS011;5061;49.068;12.058;2023-05-01T05:17:03;13.70;;;7.20;;
10041;SDS011;5061;49.068;12.058;2023-05-01T05:20:25;10.93;;;6.90;;
10041;SDS011;5061;49.068;12.058;2023-05-01T05:23:45;11.90;;;7.33;;
10041;SDS011;5061;49.068;12.058;2023-05-01T05:27:06;17.57;;;8.17;;
10041;SDS011;5061;49.068;12.058;2023-05-01T05:30:27;12.13;;;7.50;;
10041;SDS011;5061;49.068;12.058;2023-05-01T05:33:48;10.67;;;7.70;;
10041;SDS011;5061;49.068;12.058;2023-05-01T05:37:08;16.63;;;9.00;;
10041;SDS011;5061;49.068;12.058;2023-05-01T05:40:29;11.73;;;7.60;;
10041;SDS011;5061;49.068;12.058;2023-05-01T05:43:50;9.90;;;6.57;;
10041;SDS011;5061;49.068;12.058;2023-05-01T05:47:13;11.77;;;8.13;;
10041;SDS011;5061;49.068;12.058;2023-05-01T05:50:33;9.87;;;6.87;;
10041;SDS011;5061;49.068;12.058;2023-05-01T05:53:54;9.90;;;7.23;;
10041;SDS011;5061;49.068;12.058;2023-05-01T05:57:14;9.50;;;6.10;;
10041;SDS011;5061;49.068;12.058;2023-05-01T06:00:35;10.27;;;7.00;;
10041;SDS011;5061;49.068;12.058;2023-05-01T06:03:56;9.47;;;6.80;;
10041;SDS011;5061;49.068;12.058;2023-05-01T06:07:16;9.33;;;6.83;;
10041;SDS011;5061;49.068;12.058;2023-05-01T06:10:41;11.50;;;7.00;;
10041;SDS011;5061;49.068;12.058;2023-05-01T06:14:02;10.43;;;6.93;;
10041;SDS011;5061;49.068;12.058;2023-05-01T06:17:23;13.77;;;7.80;;
10041;SDS011;5061;49.068;12.058;2023-05-01T06:20:44;11.47;;;8.00;;
10041;SDS011;5061;49.068;12.058;2023-05-01T06:24:06;8.50;;;5.80;;
10041;SDS011;5061;49.068;12.058;2023-05-01T06:27:27;9.70;;;6.60;;
10041;SDS011;5061;49.068;12.058;2023-05-01T06:30:47;10.20;;;5.80;;
10041;SDS011;5061;49.068;12.058;2023-05-01T06:34:08;8.60;;;6.87;;
10041;SDS011;5061;49.068;12.058;2023-05-01T06:37:29;8.73;;;6.40;;
10041;SDS011;5061;49.068;12.058;2023-05-01T06:40:49;9.63;;;6.53;;
10041;SDS011;5061;49.068;12.058;2023-05-01T06:44:10;8.13;;;6.13;;
10041;SDS011;5061;49.068;12.058;2023-05-01T06:47:31;7.10;;;4.97;;
10041;SDS011;5061;49.068;12.058;2023-05-01T06:50:51;6.70;;;5.10;;
10041;SDS011;5061;49.068;12.058;2023-05-01T06:54:12;7.70;;;5.63;;
10041;SDS011;5061;49.068;12.058;2023-05-01T06:57:33;7.03;;;5.00;;
10041;SDS011;5061;49.068;12.058;2023-05-01T07:00:53;8.33;;;4.57;;
10041;SDS011;5061;49.068;12.058;2023-05-01T07:04:14;10.10;;;6.47;;
10041;SDS011;5061;49.068;12.058;2023-05-01T07:07:34;9.23;;;6.10;;
10041;SDS011;5061;49.068;12.058;2023-05-01T07:10:55;8.00;;;5.27;;
10041;SDS011;5061;49.068;12.058;2023-05-01T07:14:16;7.80;;;4.93;;
10041;SDS011;5061;49.068;12.058;2023-05-01T07:17:37;7.63;;;5.20;;
10041;SDS011;5061;49.068;12.058;2023-05-01T07:20:57;6.73;;;4.60;;
10041;SDS011;5061;49.068;12.058;2023-05-01T07:24:18;6.10;;;4.77;;
10041;SDS011;5061;49.068;12.058;2023-05-01T07:27:40;5.00;;;4.10;;
10041;SDS011;5061;49.068;12.058;2023-05-01T07:31:03;7.37;;;5.57;;
10041;SDS011;5061;49.068;12.058;2023-05-01T07:34:24;4.83;;;3.80;;
10041;SDS011;5061;49.068;12.058;2023-05-01T07:37:45;7.70;;;4.83;;
10041;SDS011;5061;49.068;12.058;2023-05-01T07:41:05;8.30;;;5.87;;
10041;SDS011;5061;49.068;12.058;2023-05-01T07:44:29;7.70;;;5.37;;
10041;SDS011;5061;49.068;12.058;2023-05-01T07:47:49;6.40;;;4.50;;
10041;SDS011;5061;49.068;12.058;2023-05-01T07:51:11;7.93;;;5.03;;
10041;SDS011;5061;49.068;12.058;2023-05-01T07:54:32;6.83;;;4.67;;
10041;SDS011;5061;49.068;12.058;2023-05-01T07:57:53;7.83;;;5.43;;
10041;SDS011;5061;49.068;12.058;2023-05-01T08:01:13;6.90;;;4.40;;
10041;SDS011;5061;49.068;12.058;2023-05-01T08:04:34;4.70;;;3.65;;
10041;SDS011;5061;49.068;12.058;2023-05-01T08:07:55;5.23;;;3.87;;
10041;SDS011;5061;49.068;12.058;2023-05-01T08:11:15;5.07;;;3.50;;
10041;SDS011;5061;49.068;12.058;2023-05-01T08:14:36;3.60;;;2.90;;
10041;SDS011;5061;49.068;12.058;2023-05-01T08:17:56;3.80;;;2.90;;
10041;SDS011;5061;49.068;12.058;2023-05-01T08:21:17;4.60;;;2.70;;
10041;SDS011;5061;49.068;12.058;2023-05-01T08:24:38;5.10;;;3.67;;
10041;SDS011;5061;49.068;12.058;2023-05-01T08:27:59;3.27;;;2.97;;
10041;SDS011;5061;49.068;12.058;2023-05-01T08:31:20;5.03;;;3.27;;
10041;SDS011;5061;49.068;12.058;2023-05-01T08:34:41;3.90;;;3.30;;
10041;SDS011;5061;49.068;12.058;2023-05-01T08:38:02;5.40;;;3.50;;
10041;SDS011;5061;49.068;12.058;2023-05-01T08:41:22;3.23;;;2.93;;
10041;SDS011;5061;49.068;12.058;2023-05-01T08:44:46;3.80;;;3.17;;
10041;SDS011;5061;49.068;12.058;2023-05-01T08:48:08;5.97;;;3.70;;
10041;SDS011;5061;49.068;12.058;2023-05-01T08:51:30;5.57;;;3.90;;
10041;SDS011;5061;49.068;12.058;2023-05-01T08:54:52;5.60;;;3.80;;
10041;SDS011;5061;49.068;12.058;2023-05-01T08:58:16;6.40;;;4.10;;
10041;SDS011;5061;49.068;12.058;2023-05-01T09:01:38;4.10;;;3.30;;
10041;SDS011;5061;49.068;12.058;2023-05-01T09:05:01;4.17;;;3.27;;
10041;SDS011;5061;49.068;12.058;2023-05-01T09:08:23;3.17;;;2.73;;
10041;SDS011;5061;49.068;12.058;2023-05-01T09:11:43;4.10;;;3.33;;
10041;SDS011;5061;49.068;12.058;2023-05-01T09:15:04;6.00;;;3.97;;
10041;SDS011;5061;49.068;12.058;2023-05-01T09:18:26;3.60;;;2.97;;
10041;SDS011;5061;49.068;12.058;2023-05-01T09:21:47;5.10;;;2.87;;
10041;SDS011;5061;49.068;12.058;2023-05-01T09:25:08;3.27;;;2.97;;
10041;SDS011;5061;49.068;12.058;2023-05-01T09:28:43;3.50;;;2.20;;
10041;SDS011;5061;49.068;12.058;2023-05-01T09:32:25;2.80;;;2.47;;
10041;SDS011;5061;49.068;12.058;2023-05-01T09:35:50;3.20;;;2.90;;
10041;SDS011;5061;49.068;12.058;2023-05-01T09:39:12;3.30;;;3.00;;
10041;SDS011;5061;49.068;12.058;2023-05-01T09:42:48;3.00;;;2.47;;
10041;SDS011;5061;49.068;12.058;2023-05-01T09:46:11;2.67;;;2.43;;
10041;SDS011;5061;49.068;12.058;2023-05-01T09:49:44;2.70;;;2.50;;
10041;SDS011;5061;49.068;12.058;2023-05-01T09:53:08;3.43;;;2.73;;
10041;SDS011;5061;49.068;12.058;2023-05-01T09:56:31;2.70;;;2.40;;
10041;SDS011;5061;49.068;12.058;2023-05-01T10:00:02;2.00;;;1.80;;
10041;SDS011;5061;49.068;12.058;2023-05-01T10:03:27;3.00;;;2.40;;
10041;SDS011;5061;49.068;12.058;2023-05-01T10:06:48;5.10;;;3.27;;
10041;SDS011;5061;49.068;12.058;2023-05-01T10:10:18;4.30;;;2.80;;
10041;SDS011;5061;49.068;12.058;2023-05-01T10:13:43;3.40;;;2.43;;
10041;SDS011;5061;49.068;12.058;2023-05-01T10:17:15;4.10;;;2.53;;
10041;SDS011;5061;49.068;12.058;2023-05-01T10:20:38;3.57;;;2.90;;
10041;SDS011;5061;49.068;12.058;2023-05-01T10:24:00;2.47;;;2.03;;
10041;SDS011;5061;49.068;12.058;2023-05-01T10:27:25;2.10;;;1.90;;
10041;SDS011;5061;49.068;12.058;2023-05-01T10:30:45;3.20;;;2.40;;
10041;SDS011;5061;49.068;12.058;2023-05-01T10:34:08;3.13;;;2.37;;
10041;SDS011;5061;49.068;12.058;2023-05-01T10:38:17;2.80;;;2.23;;
10041;SDS011;5061;49.068;12.058;2023-05-01T10:45:26;2.40;;;2.10;;
10041;SDS011;5061;49.068;12.058;2023-05-01T10:52:09;1.83;;;1.73;;
10041;SDS011;5061;49.068;12.058;2023-05-01T10:55:36;3.03;;;2.20;;
10041;SDS011;5061;49.068;12.058;2023-05-01T10:58:58;2.13;;;1.73;;
10041;SDS011;5061;49.068;12.058;2023-05-01T11:02:20;3.60;;;2.43;;
10041;SDS011;5061;49.068;12.058;2023-05-01T11:12:58;3.03;;;2.03;;
10041;SDS011;5061;49.068;12.058;2023-05-01T11:19:58;2.20;;;2.00;;
10041;SDS011;5061;49.068;12.058;2023-05-01T11:23:19;1.80;;;1.70;;
10041;SDS011;5061;49.068;12.058;2023-05-01T11:26:41;2.60;;;2.40;;
10041;SDS011;5061;49.068;12.058;2023-05-01T11:30:02;2.03;;;1.80;;
10041;SDS011;5061;49.068;12.058;2023-05-01T11:33:23;3.37;;;2.33;;
10041;SDS011;5061;49.068;12.058;2023-05-01T11:36:48;4.80;;;2.70;;
10041;SDS011;5061;49.068;12.058;2023-05-01T11:40:20;2.47;;;1.90;;
10041;SDS011;5061;49.068;12.058;2023-05-01T11:43:50;2.73;;;2.47;;
10041;SDS011;5061;49.068;12.058;2023-05-01T11:47:12;3.27;;;2.40;;
10041;SDS011;5061;49.068;12.058;2023-05-01T11:50:34;2.80;;;1.87;;
10041;SDS011;5061;49.068;12.058;2023-05-01T11:54:02;2.53;;;2.33;;
10041;SDS011;5061;49.068;12.058;2023-05-01T11:57:24;2.63;;;2.43;;
10041;SDS011;5061;49.068;12.058;2023-05-01T12:00:45;1.93;;;1.73;;
10041;SDS011;5061;49.068;12.058;2023-05-01T12:04:10;1.90;;;1.80;;
10041;SDS011;5061;49.068;12.058;2023-05-01T12:07:31;1.70;;;1.60;;
10041;SDS011;5061;49.068;12.058;2023-05-01T12:10:55;2.27;;;2.07;;
10041;SDS011;5061;49.068;12.058;2023-05-01T12:14:17;2.33;;;1.87;;
10041;SDS011;5061;49.068;12.058;2023-05-01T12:17:39;1.87;;;1.77;;
10041;SDS011;5061;49.068;12.058;2023-05-01T12:21:00;2.90;;;2.30;;
10041;SDS011;5061;49.068;12.058;2023-05-01T12:24:21;2.80;;;2.00;;
10041;SDS011;5061;49.068;12.058;2023-05-01T12:27:43;2.70;;;2.33;;
10041;SDS011;5061;49.068;12.058;2023-05-01T12:31:17;2.57;;;2.37;;
10041;SDS011;5061;49.068;12.058;2023-05-01T12:34:42;3.40;;;2.20;;
10041;SDS011;5061;49.068;12.058;2023-05-01T12:38:10;2.70;;;1.83;;
10041;SDS011;5061;49.068;12.058;2023-05-01T12:41:39;4.17;;;2.70;;
10041;SDS011;5061;49.068;12.058;2023-05-01T12:45:10;2.60;;;2.17;;
10041;SDS011;5061;49.068;12.058;2023-05-01T12:48:33;2.17;;;1.80;;
10041;SDS011;5061;49.068;12.058;2023-05-01T12:51:59;3.50;;;2.07;;
10041;SDS011;5061;49.068;12.058;2023-05-01T12:55:21;2.40;;;2.03;;
10041;SDS011;5061;49.068;12.058;2023-05-01T12:58:41;2.10;;;1.90;;
10041;SDS011;5061;49.068;12.058;2023-05-01T13:02:03;2.70;;;2.33;;
10041;SDS011;5061;49.068;12.058;2023-05-01T13:05:25;2.23;;;2.03;;
10041;SDS011;5061;49.068;12.058;2023-05-01T13:08:46;1.90;;;1.70;;
10041;SDS011;5061;49.068;12.058;2023-05-01T13:12:06;2.10;;;1.70;;
10041;SDS011;5061;49.068;12.058;2023-05-01T13:15:28;1.50;;;1.40;;
10041;SDS011;5061;49.068;12.058;2023-05-01T13:18:50;2.60;;;1.90;;
10041;SDS011;5061;49.068;12.058;2023-05-01T13:22:11;3.63;;;2.40;;
10041;SDS011;5061;49.068;12.058;2023-05-01T13:25:32;2.00;;;1.73;;
10041;SDS011;5061;49.068;12.058;2023-05-01T13:28:52;1.90;;;1.80;;
10041;SDS011;5061;49.068;12.058;2023-05-01T13:32:14;3.37;;;2.47;;
10041;SDS011;5061;49.068;12.058;2023-05-01T13:35:36;2.17;;;1.97;;
10041;SDS011;5061;49.068;12.058;2023-05-01T13:38:59;2.33;;;2.13;;
10041;SDS011;5061;49.068;12.058;2023-05-01T13:42:21;1.90;;;1.67;;
10041;SDS011;5061;49.068;12.058;2023-05-01T13:45:43;2.00;;;1.80;;
10041;SDS011;5061;49.068;12.058;2023-05-01T13:49:06;2.87;;;2.27;;
10041;SDS011;5061;49.068;12.058;2023-05-01T13:52:30;2.63;;;2.30;;
10041;SDS011;5061;49.068;12.058;2023-05-01T13:55:51;4.47;;;2.97;;
10041;SDS011;5061;49.068;12.058;2023-05-01T13:59:11;6.13;;;2.53;;
10041;SDS011;5061;49.068;12.058;2023-05-01T14:02:32;2.90;;;2.27;;
10041;SDS011;5061;49.068;12.058;2023-05-01T14:05:53;2.37;;;2.17;;
10041;SDS011;5061;49.068;12.058;2023-05-01T14:09:16;2.50;;;1.80;;
10041;SDS011;5061;49.068;12.058;2023-05-01T14:12:37;2.90;;;2.67;;
10041;SDS011;5061;49.068;12.058;2023-05-01T14:15:59;3.77;;;3.37;;
10041;SDS011;5061;49.068;12.058;2023-05-01T14:19:19;4.60;;;3.67;;
10041;SDS011;5061;49.068;12.058;2023-05-01T14:22:41;6.30;;;3.47;;
10041;SDS011;5061;49.068;12.058;2023-05-01T14:26:03;4.07;;;3.33;;
10041;SDS011;5061;49.068;12.058;2023-05-01T14:29:27;4.23;;;3.50;;
10041;SDS011;5061;49.068;12.058;2023-05-01T14:32:48;5.10;;;3.73;;
10041;SDS011;5061;49.068;12.058;2023-05-01T14:36:09;3.93;;;3.53;;
10041;SDS011;5061;49.068;12.058;2023-05-01T14:39:31;4.10;;;3.70;;
10041;SDS011;5061;49.068;12.058;2023-05-01T14:42:52;4.67;;;4.00;;
10041;SDS011;5061;49.068;12.058;2023-05-01T14:46:14;4.43;;;4.03;;
10041;SDS011;5061;49.068;12.058;2023-05-01T14:49:36;4.70;;;4.13;;
10041;SDS011;5061;49.068;12.058;2023-05-01T14:52:59;5.23;;;4.40;;
10041;SDS011;5061;49.068;12.058;2023-05-01T14:56:20;5.83;;;5.20;;
10041;SDS011;5061;49.068;12.058;2023-05-01T14:59:41;4.87;;;4.40;;
10041;SDS011;5061;49.068;12.058;2023-05-01T15:03:02;6.57;;;4.77;;
10041;SDS011;5061;49.068;12.058;2023-05-01T15:06:23;6.17;;;5.00;;
10041;SDS011;5061;49.068;12.058;2023-05-01T15:09:43;8.30;;;5.30;;
10041;SDS011;5061;49.068;12.058;2023-05-01T15:13:05;7.77;;;5.20;;
10041;SDS011;5061;49.068;12.058;2023-05-01T15:16:26;6.37;;;4.67;;
10041;SDS011;5061;49.068;12.058;2023-05-01T15:19:46;5.87;;;4.90;;
10041;SDS011;5061;49.068;12.058;2023-05-01T15:23:07;6.40;;;4.97;;
10041;SDS011;5061;49.068;12.058;2023-05-01T15:26:29;5.87;;;4.70;;
10041;SDS011;5061;49.068;12.058;2023-05-01T15:29:50;6.43;;;4.77;;
10041;SDS011;5061;49.068;12.058;2023-05-01T15:33:11;5.40;;;4.40;;
10041;SDS011;5061;49.068;12.058;2023-05-01T15:36:33;5.20;;;4.60;;
10041;SDS011;5061;49.068;12.058;2023-05-01T15:39:53;5.17;;;4.67;;
10041;SDS011;5061;49.068;12.058;2023-05-01T15:43:14;5.40;;;4.63;;
10041;SDS011;5061;49.068;12.058;2023-05-01T15:46:38;7.13;;;5.57;;
10041;SDS011;5061;49.068;12.058;2023-05-01T15:49:59;6.30;;;5.43;;
10041;SDS011;5061;49.068;12.058;2023-05-01T15:53:20;6.57;;;5.03;;
10041;SDS011;5061;49.068;12.058;2023-05-01T15:56:41;6.97;;;4.97;;
10041;SDS011;5061;49.068;12.058;2023-05-01T16:00:02;5.83;;;5.03;;
10041;SDS011;5061;49.068;12.058;2023-05-01T16:03:23;7.10;;;5.03;;
10041;SDS011;5061;49.068;12.058;2023-05-01T16:06:44;6.57;;;5.30;;
10041;SDS011;5061;49.068;12.058;2023-05-01T16:10:05;7.13;;;4.90;;
10041;SDS011;5061;49.068;12.058;2023-05-01T16:13:27;6.40;;;5.37;;
10041;SDS011;5061;49.068;12.058;2023-05-01T16:16:48;6.17;;;4.53;;
10041;SDS011;5061;49.068;12.058;2023-05-01T16:20:09;5.57;;;4.87;;
10041;SDS011;5061;49.068;12.058;2023-05-01T16:23:31;6.40;;;5.50;;
10041;SDS011;5061;49.068;12.058;2023-05-01T16:26:51;7.33;;;5.53;;
10041;SDS011;5061;49.068;12.058;2023-05-01T16:30:12;6.83;;;4.77;;
10041;SDS011;5061;49.068;12.058;2023-05-01T16:33:33;5.43;;;3.93;;
10041;SDS011;5061;49.068;12.058;2023-05-01T16:36:54;7.30;;;4.93;;
10041;SDS011;5061;49.068;12.058;2023-05-01T16:40:16;6.90;;;4.10;;
10041;SDS011;5061;49.068;12.058;2023-05-01T16:43:37;6.87;;;5.50;;
10041;SDS011;5061;49.068;12.058;2023-05-01T16:46:57;6.37;;;5.60;;
10041;SDS011;5061;49.068;12.058;2023-05-01T16:50:18;8.20;;;5.50;;
10041;SDS011;5061;49.068;12.058;2023-05-01T16:53:41;6.50;;;5.40;;
10041;SDS011;5061;49.068;12.058;2023-05-01T16:57:02;5.17;;;4.43;;
10041;SDS011;5061;49.068;12.058;2023-05-01T17:00:22;5.37;;;4.87;;
10041;SDS011;5061;49.068;12.058;2023-05-01T17:03:43;5.43;;;4.93;;
10041;SDS011;5061;49.068;12.058;2023-05-01T17:07:04;5.70;;;5.07;;
10041;SDS011;5061;49.068;12.058;2023-05-01T17:10:24;4.73;;;4.33;;
10041;SDS011;5061;49.068;12.058;2023-05-01T17:13:45;4.70;;;4.00;;
10041;SDS011;5061;49.068;12.058;2023-05-01T17:17:05;5.77;;;4.80;;
10041;SDS011;5061;49.068;12.058;2023-05-01T17:20:26;5.77;;;4.40;;
10041;SDS011;5061;49.068;12.058;2023-05-01T17:23:47;6.27;;;5.20;;
10041;SDS011;5061;49.068;12.058;2023-05-01T17:27:08;6.20;;;4.60;;
10041;SDS011;5061;49.068;12.058;2023-05-01T17:30:32;4.40;;;4.00;;
10041;SDS011;5061;49.068;12.058;2023-05-01T17:33:53;5.17;;;4.30;;
10041;SDS011;5061;49.068;12.058;2023-05-01T17:37:13;4.47;;;4.07;;
10041;SDS011;5061;49.068;12.058;2023-05-01T17:40:34;5.90;;;4.90;;
10041;SDS011;5061;49.068;12.058;2023-05-01T17:43:55;5.53;;;4.73;;
10041;SDS011;5061;49.068;12.058;2023-05-01T17:47:16;5.87;;;4.60;;
10041;SDS011;5061;49.068;12.058;2023-05-01T17:50:39;5.93;;;5.33;;
10041;SDS011;5061;49.068;12.058;2023-05-01T17:54:00;6.50;;;5.03;;
10041;SDS011;5061;49.068;12.058;2023-05-01T17:57:21;6.37;;;5.20;;
10041;SDS011;5061;49.068;12.058;2023-05-01T18:00:41;4.57;;;4.10;;
10041;SDS011;5061;49.068;12.058;2023-05-01T18:04:02;4.10;;;3.70;;
10041;SDS011;5061;49.068;12.058;2023-05-01T18:07:23;4.57;;;4.03;;
10041;SDS011;5061;49.068;12.058;2023-05-01T18:10:43;6.80;;;4.10;;
10041;SDS011;5061;49.068;12.058;2023-05-01T18:14:04;5.00;;;4.03;;
10041;SDS011;5061;49.068;12.058;2023-05-01T18:17:24;4.77;;;4.20;;
10041;SDS011;5061;49.068;12.058;2023-05-01T18:20:45;5.10;;;3.83;;
10041;SDS011;5061;49.068;12.058;2023-05-01T18:24:06;4.33;;;3.77;;
10041;SDS011;5061;49.068;12.058;2023-05-01T18:27:26;3.40;;;3.10;;
10041;SDS011;5061;49.068;12.058;2023-05-01T18:30:47;4.47;;;3.53;;
10041;SDS011;5061;49.068;12.058;2023-05-01T18:34:08;3.60;;;3.30;;
10041;SDS011;5061;49.068;12.058;2023-05-01T18:37:30;3.90;;;3.53;;
10041;SDS011;5061;49.068;12.058;2023-05-01T18:40:52;3.80;;;3.47;;
10041;SDS011;5061;49.068;12.058;2023-05-01T18:44:13;4.43;;;3.37;;
10041;SDS011;5061;49.068;12.058;2023-05-01T18:47:34;3.60;;;3.30;;
10041;SDS011;5061;49.068;12.058;2023-05-01T18:50:54;3.57;;;3.20;;
10041;SDS011;5061;49.068;12.058;2023-05-01T18:54:17;3.50;;;2.83;;
10041;SDS011;5061;49.068;12.058;2023-05-01T18:57:38;3.10;;;2.80;;
10041;SDS011;5061;49.068;12.058;2023-05-01T19:01:00;3.13;;;2.83;;
10041;SDS011;5061;49.068;12.058;2023-05-01T19:04:21;3.60;;;3.00;;
10041;SDS011;5061;49.068;12.058;2023-05-01T19:07:42;5.40;;;3.73;;
10041;SDS011;5061;49.068;12.058;2023-05-01T19:11:03;3.90;;;3.37;;
10041;SDS011;5061;49.068;12.058;2023-05-01T19:14:24;3.87;;;3.10;;
10041;SDS011;5061;49.068;12.058;2023-05-01T19:17:45;3.53;;;3.23;;
10041;SDS011;5061;49.068;12.058;2023-05-01T19:21:06;4.80;;;4.10;;
10041;SDS011;5061;49.068;12.058;2023-05-01T19:24:26;5.77;;;4.00;;
10041;SDS011;5061;49.068;12.058;2023-05-01T19:27:47;3.90;;;3.60;;
10041;SDS011;5061;49.068;12.058;2023-05-01T19:31:09;5.37;;;4.77;;
10041;SDS011;5061;49.068;12.058;2023-05-01T19:34:30;5.63;;;4.80;;
10041;SDS011;5061;49.068;12.058;2023-05-01T19:37:54;5.27;;;4.60;;
10041;SDS011;5061;49.068;12.058;2023-05-01T19:41:17;5.20;;;4.53;;
10041;SDS011;5061;49.068;12.058;2023-05-01T19:44:37;5.17;;;4.67;;
10041;SDS011;5061;49.068;12.058;2023-05-01T19:47:58;8.77;;;6.13;;
10041;SDS011;5061;49.068;12.058;2023-05-01T19:51:19;6.53;;;5.47;;
10041;SDS011;5061;49.068;12.058;2023-05-01T19:54:39;6.53;;;5.60;;
10041;SDS011;5061;49.068;12.058;2023-05-01T19:58:02;8.13;;;6.13;;
10041;SDS011;5061;49.068;12.058;2023-05-01T20:01:23;7.40;;;5.90;;
10041;SDS011;5061;49.068;12.058;2023-05-01T20:04:44;6.90;;;6.00;;
10041;SDS011;5061;49.068;12.058;2023-05-01T20:08:07;8.50;;;6.80;;
10041;SDS011;5061;49.068;12.058;2023-05-01T20:11:28;8.00;;;6.00;;
10041;SDS011;5061;49.068;12.058;2023-05-01T20:14:50;7.60;;;5.67;;
10041;SDS011;5061;49.068;12.058;2023-05-01T20:18:11;7.63;;;5.90;;
10041;SDS011;5061;49.068;12.058;2023-05-01T20:21:32;6.07;;;5.47;;
10041;SDS011;5061;49.068;12.058;2023-05-01T20:24:53;6.00;;;5.40;;
10041;SDS011;5061;49.068;12.058;2023-05-01T20:28:14;7.40;;;6.30;;
10041;SDS011;5061;49.068;12.058;2023-05-01T20:31:34;8.30;;;6.90;;
10041;SDS011;5061;49.068;12.058;2023-05-01T20:34:55;7.80;;;6.17;;
10041;SDS011;5061;49.068;12.058;2023-05-01T20:38:16;7.97;;;6.30;;
10041;SDS011;5061;49.068;12.058;2023-05-01T20:41:37;7.23;;;5.83;;
10041;SDS011;5061;49.068;12.058;2023-05-01T20:44:58;6.33;;;5.73;;
10041;SDS011;5061;49.068;12.058;2023-05-01T20:48:18;6.53;;;5.47;;
10041;SDS011;5061;49.068;12.058;2023-05-01T20:51:39;6.47;;;5.60;;